Time,TemperatureF,DewpointF,PressureIn,WindDirection,WindDirectionDegrees,WindSpeedMPH,WindSpeedGustMPH,Humidity,HourlyPrecipIn,Conditions,Clouds,dailyrainin,SoftwareType,DateUTC
2013-02-15 00:04:00,3.0,-6.3,30.12,West,270,17.0,17.0,64,0.00,,,0.00,meteohub,2013-02-15 06:04:00,
2013-02-15 00:09:00,3.2,-6.5,30.12,West,270,16.0,16.0,63,0.00,,,0.00,meteohub,2013-02-15 06:09:00,
2013-02-15 00:14:00,3.2,-6.5,30.12,West,270,15.0,17.0,63,0.00,,,0.00,meteohub,2013-02-15 06:14:00,
2013-02-15 00:19:00,3.2,-6.5,30.12,West,270,17.0,19.0,63,0.00,,,0.00,meteohub,2013-02-15 06:19:00,
2013-02-15 00:24:00,3.4,-6.3,30.12,West,270,18.0,19.0,63,0.00,,,0.00,meteohub,2013-02-15 06:24:00,
2013-02-15 00:29:00,3.6,-6.2,30.12,West,270,17.0,19.0,63,0.00,,,0.00,meteohub,2013-02-15 06:29:00,
2013-02-15 00:34:00,3.6,-6.2,30.12,West,270,19.0,19.0,63,0.00,,,0.00,meteohub,2013-02-15 06:34:00,
2013-02-15 00:39:00,3.6,-6.2,30.12,West,270,17.0,21.0,63,0.00,,,0.00,meteohub,2013-02-15 06:39:00,
2013-02-15 00:44:00,3.4,-6.3,30.12,West,270,16.0,21.0,63,0.00,,,0.00,meteohub,2013-02-15 06:44:00,
2013-02-15 00:49:00,3.2,-6.5,30.12,West,270,17.0,21.0,63,0.00,,,0.00,meteohub,2013-02-15 06:49:00,
2013-02-15 00:55:00,3.4,-6.3,30.12,West,270,20.0,20.0,63,0.00,,,0.00,meteohub,2013-02-15 06:55:00,
2013-02-15 01:00:00,3.6,-6.2,30.12,West,270,16.0,20.0,63,0.00,,,0.00,meteohub,2013-02-15 07:00:00,
2013-02-15 01:05:00,3.7,-6.0,30.12,West,270,20.0,20.0,63,0.00,,,0.00,meteohub,2013-02-15 07:05:00,
2013-02-15 01:10:00,3.6,-6.2,30.12,West,270,19.0,21.0,63,0.00,,,0.00,meteohub,2013-02-15 07:10:00,
2013-02-15 01:15:00,3.6,-6.2,30.12,West,270,17.0,21.0,63,0.00,,,0.00,meteohub,2013-02-15 07:15:00,
2013-02-15 01:20:00,3.6,-6.2,30.12,West,270,18.0,20.0,63,0.00,,,0.00,meteohub,2013-02-15 07:20:00,
2013-02-15 01:25:00,3.2,-6.5,30.12,NW,315,19.0,20.0,63,0.00,,,0.00,meteohub,2013-02-15 07:25:00,
2013-02-15 01:30:00,3.0,-6.7,30.12,West,270,17.0,20.0,63,0.00,,,0.00,meteohub,2013-02-15 07:30:00,
2013-02-15 01:35:00,2.8,-6.9,30.12,West,270,16.0,19.0,63,0.00,,,0.00,meteohub,2013-02-15 07:35:00,
2013-02-15 01:40:00,2.7,-7.1,30.12,West,270,14.0,19.0,63,0.00,,,0.00,meteohub,2013-02-15 07:40:00,
2013-02-15 01:45:00,2.8,-6.9,30.12,West,270,15.0,17.0,63,0.00,,,0.00,meteohub,2013-02-15 07:45:00,
2013-02-15 01:50:00,3.2,-6.9,30.12,West,270,16.0,17.0,62,0.00,,,0.00,meteohub,2013-02-15 07:50:00,
2013-02-15 01:55:00,3.2,-6.9,30.12,West,270,16.0,17.0,62,0.00,,,0.00,meteohub,2013-02-15 07:55:00,
2013-02-15 02:00:00,3.2,-6.9,30.12,NW,315,14.0,17.0,62,0.00,,,0.00,meteohub,2013-02-15 08:00:00,
2013-02-15 02:05:00,3.2,-6.9,30.12,West,270,13.0,17.0,62,0.00,,,0.00,meteohub,2013-02-15 08:05:00,
2013-02-15 02:10:00,3.2,-6.9,30.12,West,270,17.0,17.0,62,0.00,,,0.00,meteohub,2013-02-15 08:10:00,
2013-02-15 02:15:00,3.2,-6.9,30.12,West,270,15.0,17.0,62,0.00,,,0.00,meteohub,2013-02-15 08:15:00,
2013-02-15 02:20:00,3.2,-6.9,30.12,West,270,12.0,17.0,62,0.00,,,0.00,meteohub,2013-02-15 08:20:00,
2013-02-15 02:26:00,3.0,-6.7,30.12,West,270,13.0,17.0,63,0.00,,,0.00,meteohub,2013-02-15 08:26:00,
2013-02-15 02:31:00,2.7,-7.1,30.12,NW,315,13.0,15.0,63,0.00,,,0.00,meteohub,2013-02-15 08:31:00,
2013-02-15 02:36:00,2.7,-7.4,30.12,West,270,13.0,15.0,62,0.00,,,0.00,meteohub,2013-02-15 08:36:00,
2013-02-15 02:41:00,2.8,-6.9,30.13,West,270,13.0,15.0,63,0.00,,,0.00,meteohub,2013-02-15 08:41:00,
2013-02-15 02:46:00,3.0,-6.7,30.13,West,270,13.0,15.0,63,0.00,,,0.00,meteohub,2013-02-15 08:46:00,
2013-02-15 02:51:00,3.0,-6.7,30.13,West,270,14.0,15.0,63,0.00,,,0.00,meteohub,2013-02-15 08:51:00,
2013-02-15 02:56:00,3.0,-6.7,30.13,West,270,14.0,15.0,63,0.00,,,0.00,meteohub,2013-02-15 08:56:00,
2013-02-15 03:01:00,2.8,-6.9,30.13,West,270,13.0,15.0,63,0.00,,,0.00,meteohub,2013-02-15 09:01:00,
2013-02-15 03:06:00,2.7,-7.1,30.12,WNW,293,13.0,15.0,63,0.00,,,0.00,meteohub,2013-02-15 09:06:00,
2013-02-15 03:11:00,2.7,-7.1,30.13,West,270,11.0,15.0,63,0.00,,,0.00,meteohub,2013-02-15 09:11:00,
2013-02-15 03:16:00,2.7,-7.1,30.13,West,270,12.0,15.0,63,0.00,,,0.00,meteohub,2013-02-15 09:16:00,
2013-02-15 03:21:00,2.5,-7.2,30.13,West,270,12.0,14.0,63,0.00,,,0.00,meteohub,2013-02-15 09:21:00,
2013-02-15 03:26:00,2.5,-7.2,30.13,West,270,14.0,14.0,63,0.00,,,0.00,meteohub,2013-02-15 09:26:00,
2013-02-15 03:31:00,2.5,-7.2,30.12,NW,315,13.0,14.0,63,0.00,,,0.00,meteohub,2013-02-15 09:31:00,
2013-02-15 03:37:00,2.3,-7.4,30.12,NW,315,13.0,15.0,63,0.00,,,0.00,meteohub,2013-02-15 09:37:00,
2013-02-15 03:42:00,2.5,-7.2,30.12,West,270,11.0,15.0,63,0.00,,,0.00,meteohub,2013-02-15 09:42:00,
2013-02-15 03:47:00,2.1,-7.6,30.13,West,270,10.0,15.0,63,0.00,,,0.00,meteohub,2013-02-15 09:47:00,
2013-02-15 03:52:00,1.9,-7.8,30.13,West,270,9.0,15.0,63,0.00,,,0.00,meteohub,2013-02-15 09:52:00,
2013-02-15 03:57:00,2.3,-7.4,30.12,West,270,10.0,11.0,63,0.00,,,0.00,meteohub,2013-02-15 09:57:00,
2013-02-15 04:02:00,2.7,-7.1,30.12,West,270,10.0,11.0,63,0.00,,,0.00,meteohub,2013-02-15 10:02:00,
2013-02-15 04:07:00,3.2,-6.9,30.13,West,270,15.0,15.0,62,0.00,,,0.00,meteohub,2013-02-15 10:07:00,
2013-02-15 04:12:00,3.2,-6.9,30.13,West,270,11.0,15.0,62,0.00,,,0.00,meteohub,2013-02-15 10:12:00,
2013-02-15 04:17:00,3.2,-6.9,30.13,West,270,13.0,15.0,62,0.00,,,0.00,meteohub,2013-02-15 10:17:00,
2013-02-15 04:22:00,2.7,-7.1,30.13,West,270,12.0,16.0,63,0.00,,,0.00,meteohub,2013-02-15 10:22:00,
2013-02-15 04:27:00,2.5,-7.2,30.13,West,270,13.0,16.0,63,0.00,,,0.00,meteohub,2013-02-15 10:27:00,
2013-02-15 04:32:00,2.3,-7.4,30.13,West,270,13.0,15.0,63,0.00,,,0.00,meteohub,2013-02-15 10:32:00,
2013-02-15 04:37:00,1.9,-8.1,30.13,West,270,12.0,15.0,62,0.00,,,0.00,meteohub,2013-02-15 10:37:00,
2013-02-15 04:42:00,1.9,-7.8,30.13,West,270,12.0,15.0,63,0.00,,,0.00,meteohub,2013-02-15 10:42:00,
2013-02-15 04:47:00,1.9,-7.8,30.13,West,270,13.0,15.0,63,0.00,,,0.00,meteohub,2013-02-15 10:47:00,
2013-02-15 04:52:00,1.8,-8.0,30.14,West,270,12.0,15.0,63,0.00,,,0.00,meteohub,2013-02-15 10:52:00,
2013-02-15 04:57:00,1.8,-8.0,30.13,West,270,13.0,14.0,63,0.00,,,0.00,meteohub,2013-02-15 10:57:00,
2013-02-15 05:03:00,1.8,-8.0,30.13,West,270,12.0,14.0,63,0.00,,,0.00,meteohub,2013-02-15 11:03:00,
2013-02-15 05:08:00,1.8,-8.0,30.13,NW,315,11.0,14.0,63,0.00,,,0.00,meteohub,2013-02-15 11:08:00,
2013-02-15 05:13:00,1.6,-8.1,30.13,West,270,12.0,14.0,63,0.00,,,0.00,meteohub,2013-02-15 11:13:00,
2013-02-15 05:18:00,1.4,-8.3,30.13,West,270,11.0,13.0,63,0.00,,,0.00,meteohub,2013-02-15 11:18:00,
2013-02-15 05:23:00,1.4,-8.3,30.13,West,270,12.0,12.0,63,0.00,,,0.00,meteohub,2013-02-15 11:23:00,
2013-02-15 05:28:00,1.2,-9.8,30.14,West,270,11.0,12.0,59,0.00,,,0.00,meteohub,2013-02-15 11:28:00,
2013-02-15 05:33:00,1.4,-8.3,30.14,West,270,12.0,13.0,63,0.00,,,0.00,meteohub,2013-02-15 11:33:00,
2013-02-15 05:38:00,1.6,-8.1,30.14,NW,315,14.0,14.0,63,0.00,,,0.00,meteohub,2013-02-15 11:38:00,
2013-02-15 05:43:00,1.8,-8.0,30.15,West,270,12.0,15.0,63,0.00,,,0.00,meteohub,2013-02-15 11:43:00,
2013-02-15 05:48:00,1.4,-8.3,30.15,West,270,11.0,15.0,63,0.00,,,0.00,meteohub,2013-02-15 11:48:00,
2013-02-15 05:53:00,1.2,-9.8,30.15,West,270,11.0,15.0,59,0.00,,,0.00,meteohub,2013-02-15 11:53:00,
2013-02-15 05:58:00,1.0,-9.9,30.16,NW,315,11.0,14.0,59,0.00,,,0.00,meteohub,2013-02-15 11:58:00,
2013-02-15 06:03:00,0.9,-10.1,30.16,West,270,11.0,13.0,59,0.00,,,0.00,meteohub,2013-02-15 12:03:00,
2013-02-15 06:09:00,0.9,-10.1,30.17,West,270,12.0,13.0,59,0.00,,,0.00,meteohub,2013-02-15 12:09:00,
2013-02-15 06:14:00,1.0,-9.9,30.17,West,270,11.0,12.0,59,0.00,,,0.00,meteohub,2013-02-15 12:14:00,
2013-02-15 06:19:00,0.7,-10.3,30.17,West,270,11.0,12.0,59,0.00,,,0.00,meteohub,2013-02-15 12:19:00,
2013-02-15 06:24:00,0.5,-10.5,30.18,West,270,13.0,13.0,59,0.00,,,0.00,meteohub,2013-02-15 12:24:00,
2013-02-15 06:29:00,0.5,-10.8,30.17,West,270,11.0,13.0,58,0.00,,,0.00,meteohub,2013-02-15 12:29:00,
2013-02-15 06:34:00,0.3,-11.0,30.17,NW,315,11.0,13.0,58,0.00,,,0.00,meteohub,2013-02-15 12:34:00,
2013-02-15 06:39:00,0.3,-11.0,30.17,NW,315,12.0,13.0,58,0.00,,,0.00,meteohub,2013-02-15 12:39:00,
2013-02-15 06:44:00,0.5,-10.5,30.17,NW,315,11.0,12.0,59,0.01,,,0.01,meteohub,2013-02-15 12:44:00,
2013-02-15 06:49:00,0.3,-11.0,30.17,NW,315,11.0,12.0,58,0.01,,,0.01,meteohub,2013-02-15 12:49:00,
2013-02-15 06:54:00,0.1,-11.2,30.17,NW,315,11.0,12.0,58,0.01,,,0.01,meteohub,2013-02-15 12:54:00,
2013-02-15 06:59:00,-0.2,-11.6,30.18,West,270,10.0,12.0,58,0.01,,,0.01,meteohub,2013-02-15 12:59:00,
2013-02-15 07:04:00,-0.2,-11.6,30.17,NW,315,11.0,12.0,58,0.01,,,0.01,meteohub,2013-02-15 13:04:00,
2013-02-15 07:10:00,0.1,-11.2,30.17,NW,315,12.0,12.0,58,0.01,,,0.01,meteohub,2013-02-15 13:10:00,
2013-02-15 07:15:00,0.0,-11.4,30.17,West,270,11.0,12.0,58,0.01,,,0.01,meteohub,2013-02-15 13:15:00,
2013-02-15 07:20:00,0.0,-11.4,30.17,NW,315,11.0,12.0,58,0.01,,,0.01,meteohub,2013-02-15 13:20:00,
2013-02-15 07:25:00,0.0,-11.4,30.18,West,270,11.0,12.0,58,0.01,,,0.01,meteohub,2013-02-15 13:25:00,
2013-02-15 07:30:00,0.0,-11.4,30.17,West,270,11.0,11.0,58,0.01,,,0.01,meteohub,2013-02-15 13:30:00,
2013-02-15 07:35:00,-0.2,-11.6,30.17,NW,315,10.0,11.0,58,0.00,,,0.01,meteohub,2013-02-15 13:35:00,
2013-02-15 07:40:00,-0.2,-11.6,30.18,NW,315,10.0,11.0,58,0.00,,,0.01,meteohub,2013-02-15 13:40:00,
2013-02-15 07:45:00,0.0,-11.4,30.18,West,270,11.0,11.0,58,0.00,,,0.01,meteohub,2013-02-15 13:45:00,
2013-02-15 07:50:00,0.0,-11.4,30.18,West,270,10.0,11.0,58,0.00,,,0.01,meteohub,2013-02-15 13:50:00,
2013-02-15 07:55:00,0.0,-11.4,30.18,West,270,10.0,11.0,58,0.00,,,0.01,meteohub,2013-02-15 13:55:00,
2013-02-15 08:00:00,0.0,-11.4,30.18,NW,315,10.0,11.0,58,0.00,,,0.01,meteohub,2013-02-15 14:00:00,
2013-02-15 08:05:00,0.5,-10.8,30.18,NW,315,11.0,11.0,58,0.00,,,0.01,meteohub,2013-02-15 14:05:00,
2013-02-15 08:11:00,0.5,-10.8,30.18,West,270,9.0,11.0,58,0.00,,,0.01,meteohub,2013-02-15 14:11:00,
2013-02-15 08:16:00,0.5,-10.8,30.18,NW,315,10.0,11.0,58,0.00,,,0.01,meteohub,2013-02-15 14:16:00,
2013-02-15 08:21:00,0.5,-10.8,30.18,WNW,293,8.0,11.0,58,0.00,,,0.01,meteohub,2013-02-15 14:21:00,
2013-02-15 08:26:00,0.9,-10.5,30.18,NW,315,8.0,11.0,58,0.00,,,0.01,meteohub,2013-02-15 14:26:00,
2013-02-15 08:31:00,1.4,-8.3,30.19,NW,315,8.0,10.0,63,0.00,,,0.01,meteohub,2013-02-15 14:31:00,
2013-02-15 08:36:00,1.4,-8.3,30.19,North,0,8.0,9.0,63,0.00,,,0.01,meteohub,2013-02-15 14:36:00,
2013-02-15 08:41:00,1.2,-10.1,30.19,NW,315,8.0,9.0,58,0.00,,,0.01,meteohub,2013-02-15 14:41:00,
2013-02-15 08:46:00,1.0,-10.3,30.19,NW,315,8.0,8.0,58,0.00,,,0.01,meteohub,2013-02-15 14:46:00,
2013-02-15 08:51:00,1.0,-10.3,30.19,NW,315,7.0,8.0,58,0.00,,,0.01,meteohub,2013-02-15 14:51:00,
2013-02-15 08:56:00,1.4,-8.7,30.19,NW,315,5.0,8.0,62,0.00,,,0.01,meteohub,2013-02-15 14:56:00,
2013-02-15 09:02:00,1.9,-7.8,30.20,NW,315,7.0,8.0,63,0.00,,,0.01,meteohub,2013-02-15 15:02:00,
2013-02-15 09:07:00,1.4,-8.7,30.20,NW,315,8.0,8.0,62,0.00,,,0.01,meteohub,2013-02-15 15:07:00,
2013-02-15 09:12:00,1.6,-8.1,30.20,NW,315,7.0,8.0,63,0.00,,,0.01,meteohub,2013-02-15 15:12:00,
2013-02-15 09:17:00,1.6,-8.1,30.20,North,0,8.0,8.0,63,0.00,,,0.01,meteohub,2013-02-15 15:17:00,
2013-02-15 09:22:00,1.9,-7.8,30.20,NW,315,6.0,8.0,63,0.00,,,0.01,meteohub,2013-02-15 15:22:00,
2013-02-15 09:27:00,2.3,-7.4,30.20,NW,315,7.0,8.0,63,0.00,,,0.01,meteohub,2013-02-15 15:27:00,
2013-02-15 09:32:00,2.5,-7.2,30.20,North,0,7.0,8.0,63,0.00,,,0.01,meteohub,2013-02-15 15:32:00,
2013-02-15 09:37:00,2.7,-7.1,30.20,NW,315,6.0,8.0,63,0.00,,,0.01,meteohub,2013-02-15 15:37:00,
2013-02-15 09:42:00,2.7,-7.1,30.20,NW,315,6.0,8.0,63,0.00,,,0.01,meteohub,2013-02-15 15:42:00,
2013-02-15 09:48:00,2.7,-7.1,30.20,North,0,5.0,8.0,63,0.00,,,0.01,meteohub,2013-02-15 15:48:00,
2013-02-15 09:53:00,3.0,-6.7,30.21,NW,315,5.0,8.0,63,0.00,,,0.01,meteohub,2013-02-15 15:53:00,
2013-02-15 09:58:00,3.2,-6.9,30.20,NW,315,6.0,8.0,62,0.00,,,0.01,meteohub,2013-02-15 15:58:00,
2013-02-15 10:03:00,3.0,-7.1,30.21,WNW,293,6.0,6.0,62,0.00,,,0.01,meteohub,2013-02-15 16:03:00,
2013-02-15 10:08:00,3.6,-6.5,30.21,NW,315,4.0,6.0,62,0.00,,,0.01,meteohub,2013-02-15 16:08:00,
2013-02-15 10:13:00,3.9,-6.2,30.20,NW,315,5.0,6.0,62,0.00,,,0.01,meteohub,2013-02-15 16:13:00,
2013-02-15 10:18:00,3.4,-6.7,30.21,NW,315,5.0,6.0,62,0.00,,,0.01,meteohub,2013-02-15 16:18:00,
2013-02-15 10:23:00,3.2,-6.9,30.21,West,270,5.0,5.0,62,0.00,,,0.01,meteohub,2013-02-15 16:23:00,
2013-02-15 10:28:00,3.2,-6.9,30.21,NW,315,4.0,5.0,62,0.00,,,0.01,meteohub,2013-02-15 16:28:00,
2013-02-15 10:33:00,4.1,-6.0,30.21,West,270,6.0,6.0,62,0.00,,,0.01,meteohub,2013-02-15 16:33:00,
2013-02-15 10:38:00,3.6,-6.5,30.20,West,270,6.0,7.0,62,0.00,,,0.01,meteohub,2013-02-15 16:38:00,
2013-02-15 10:43:00,3.6,-6.5,30.21,West,270,5.0,7.0,62,0.00,,,0.01,meteohub,2013-02-15 16:43:00,
2013-02-15 10:48:00,4.3,-5.8,30.21,West,270,4.0,7.0,62,0.00,,,0.01,meteohub,2013-02-15 16:48:00,
2013-02-15 10:53:00,5.0,-5.4,30.20,West,270,4.0,7.0,61,0.00,,,0.01,meteohub,2013-02-15 16:53:00,
2013-02-15 10:59:00,5.0,-5.4,30.21,West,270,5.0,7.0,61,0.00,,,0.01,meteohub,2013-02-15 16:59:00,
2013-02-15 11:04:00,5.4,-5.1,30.21,West,270,5.0,5.0,61,0.00,,,0.01,meteohub,2013-02-15 17:04:00,
2013-02-15 11:09:00,5.2,-5.3,30.21,West,270,4.0,5.0,61,0.00,,,0.01,meteohub,2013-02-15 17:09:00,
2013-02-15 11:14:00,5.4,-5.1,30.21,West,270,6.0,6.0,61,0.00,,,0.01,meteohub,2013-02-15 17:14:00,
2013-02-15 11:19:00,5.5,-5.1,30.21,NW,315,7.0,7.0,61,0.00,,,0.01,meteohub,2013-02-15 17:19:00,
2013-02-15 11:24:00,5.7,-4.9,30.21,West,270,8.0,8.0,61,0.00,,,0.01,meteohub,2013-02-15 17:24:00,
2013-02-15 11:29:00,6.4,-4.2,30.21,NW,315,8.0,8.0,61,0.00,,,0.01,meteohub,2013-02-15 17:29:00,
2013-02-15 11:34:00,6.1,-4.5,30.21,West,270,9.0,9.0,61,0.00,,,0.01,meteohub,2013-02-15 17:34:00,
2013-02-15 11:39:00,6.3,-4.4,30.21,West,270,9.0,9.0,61,0.00,,,0.01,meteohub,2013-02-15 17:39:00,
2013-02-15 11:44:00,6.4,-4.2,30.21,West,270,8.0,10.0,61,0.00,,,0.01,meteohub,2013-02-15 17:44:00,
2013-02-15 11:49:00,6.4,-4.2,30.20,NW,315,10.0,10.0,61,0.00,,,0.01,meteohub,2013-02-15 17:49:00,
2013-02-15 11:54:00,6.8,-4.2,30.21,West,270,10.0,11.0,60,0.00,,,0.01,meteohub,2013-02-15 17:54:00,
2013-02-15 11:59:00,6.8,-4.2,30.20,NW,315,11.0,11.0,60,0.00,,,0.01,meteohub,2013-02-15 17:59:00,
2013-02-15 12:04:00,6.8,-4.2,30.21,NW,315,11.0,11.0,60,0.00,,,0.01,meteohub,2013-02-15 18:04:00,
2013-02-15 12:10:00,7.2,-3.5,30.20,West,270,15.0,15.0,61,0.00,,,0.01,meteohub,2013-02-15 18:10:00,
2013-02-15 12:15:00,7.5,-3.1,30.20,NW,315,13.0,14.0,61,0.00,,,0.01,meteohub,2013-02-15 18:15:00,
2013-02-15 12:20:00,7.9,-2.7,30.20,NW,315,13.0,15.0,61,0.00,,,0.01,meteohub,2013-02-15 18:20:00,
2013-02-15 12:25:00,7.7,-2.9,30.20,NW,315,14.0,15.0,61,0.00,,,0.01,meteohub,2013-02-15 18:25:00,
2013-02-15 12:30:00,7.7,-2.9,30.19,NW,315,12.0,15.0,61,0.00,,,0.01,meteohub,2013-02-15 18:30:00,
2013-02-15 12:35:00,8.1,-2.6,30.19,NW,315,13.0,15.0,61,0.00,,,0.01,meteohub,2013-02-15 18:35:00,
2013-02-15 12:40:00,8.2,-2.4,30.19,NW,315,15.0,15.0,61,0.00,,,0.01,meteohub,2013-02-15 18:40:00,
2013-02-15 12:45:00,8.1,-2.6,30.19,West,270,15.0,15.0,61,0.00,,,0.01,meteohub,2013-02-15 18:45:00,
2013-02-15 12:50:00,8.1,-2.6,30.19,West,270,15.0,15.0,61,0.00,,,0.01,meteohub,2013-02-15 18:50:00,
2013-02-15 12:56:00,9.3,-1.5,30.20,West,270,15.0,15.0,61,0.00,,,0.01,meteohub,2013-02-15 18:56:00,
2013-02-15 13:01:00,8.8,-2.2,30.20,NW,315,15.0,15.0,60,0.00,,,0.01,meteohub,2013-02-15 19:01:00,
2013-02-15 13:06:00,9.0,-2.0,30.21,NW,315,15.0,17.0,60,0.00,,,0.01,meteohub,2013-02-15 19:06:00,
2013-02-15 13:11:00,8.6,-2.4,30.21,NW,315,16.0,17.0,60,0.00,,,0.01,meteohub,2013-02-15 19:11:00,
2013-02-15 13:16:00,8.8,-2.2,30.21,West,270,16.0,17.0,60,0.00,,,0.01,meteohub,2013-02-15 19:16:00,
2013-02-15 13:21:00,9.3,-1.5,30.22,West,270,17.0,17.0,61,0.00,,,0.01,meteohub,2013-02-15 19:21:00,
2013-02-15 13:26:00,9.3,-1.5,30.22,West,270,15.0,17.0,61,0.00,,,0.01,meteohub,2013-02-15 19:26:00,
2013-02-15 13:32:00,9.7,-1.1,30.22,NW,315,16.0,17.0,61,0.00,,,0.01,meteohub,2013-02-15 19:32:00,
2013-02-15 13:37:00,9.7,-1.1,30.22,NW,315,17.0,17.0,61,0.00,,,0.01,meteohub,2013-02-15 19:37:00,
2013-02-15 13:42:00,9.9,-1.3,30.22,West,270,17.0,17.0,60,0.00,,,0.01,meteohub,2013-02-15 19:42:00,
2013-02-15 13:47:00,10.2,-0.9,30.22,NW,315,17.0,17.0,60,0.00,,,0.01,meteohub,2013-02-15 19:47:00,
2013-02-15 13:52:00,10.8,1.0,30.22,NW,315,12.0,17.0,64,0.00,,,0.01,meteohub,2013-02-15 19:52:00,
2013-02-15 13:57:00,10.6,0.9,30.21,West,270,16.0,17.0,64,0.00,,,0.01,meteohub,2013-02-15 19:57:00,
2013-02-15 14:02:00,10.6,0.5,30.21,NW,315,15.0,17.0,63,0.00,,,0.01,meteohub,2013-02-15 20:02:00,
2013-02-15 14:07:00,10.8,0.7,30.21,West,270,18.0,18.0,63,0.00,,,0.01,meteohub,2013-02-15 20:07:00,
2013-02-15 14:12:00,11.1,1.0,30.21,NW,315,15.0,18.0,63,0.00,,,0.01,meteohub,2013-02-15 20:12:00,
2013-02-15 14:18:00,11.3,1.2,30.21,NW,315,15.0,18.0,63,0.00,,,0.01,meteohub,2013-02-15 20:18:00,
2013-02-15 14:23:00,11.3,0.9,30.21,NW,315,17.0,18.0,62,0.00,,,0.01,meteohub,2013-02-15 20:23:00,
2013-02-15 14:28:00,11.3,0.9,30.21,West,270,17.0,18.0,62,0.00,,,0.01,meteohub,2013-02-15 20:28:00,
2013-02-15 14:33:00,11.5,1.0,30.20,NW,315,15.0,19.0,62,0.00,,,0.01,meteohub,2013-02-15 20:33:00,
2013-02-15 14:38:00,11.8,1.4,30.21,NW,315,16.0,19.0,62,0.00,,,0.01,meteohub,2013-02-15 20:38:00,
2013-02-15 14:43:00,11.7,0.9,30.20,NW,315,16.0,19.0,61,0.00,,,0.01,meteohub,2013-02-15 20:43:00,
2013-02-15 14:49:00,11.5,0.7,30.20,NW,315,16.0,17.0,61,0.00,,,0.01,meteohub,2013-02-15 20:49:00,
2013-02-15 14:54:00,11.5,0.3,30.19,West,270,16.0,17.0,60,0.00,,,0.01,meteohub,2013-02-15 20:54:00,
2013-02-15 14:59:00,11.5,0.3,30.20,West,270,17.0,18.0,60,0.00,,,0.01,meteohub,2013-02-15 20:59:00,
2013-02-15 15:04:00,11.7,0.9,30.20,West,270,16.0,18.0,61,0.00,,,0.01,meteohub,2013-02-15 21:04:00,
2013-02-15 15:09:00,11.8,1.0,30.20,West,270,16.0,18.0,61,0.00,,,0.01,meteohub,2013-02-15 21:09:00,
2013-02-15 15:14:00,11.7,0.5,30.20,West,270,15.0,17.0,60,0.00,,,0.01,meteohub,2013-02-15 21:14:00,
2013-02-15 15:19:00,11.8,0.7,30.20,West,270,16.0,17.0,60,0.00,,,0.01,meteohub,2013-02-15 21:19:00,
2013-02-15 15:24:00,12.4,1.2,30.20,West,270,15.0,17.0,60,0.00,,,0.01,meteohub,2013-02-15 21:24:00,
2013-02-15 15:30:00,12.6,1.0,30.20,NW,315,17.0,17.0,59,0.00,,,0.01,meteohub,2013-02-15 21:30:00,
2013-02-15 15:35:00,12.7,1.0,30.20,West,270,14.0,17.0,59,0.00,,,0.01,meteohub,2013-02-15 21:35:00,
2013-02-15 15:40:00,12.6,1.0,30.20,West,270,17.0,17.0,59,0.00,,,0.01,meteohub,2013-02-15 21:40:00,
2013-02-15 15:45:00,12.7,1.0,30.20,NW,315,17.0,17.0,59,0.00,,,0.01,meteohub,2013-02-15 21:45:00,
2013-02-15 15:50:00,12.7,1.0,30.19,West,270,15.0,18.0,59,0.00,,,0.01,meteohub,2013-02-15 21:50:00,
2013-02-15 15:55:00,12.9,1.2,30.19,West,270,18.0,18.0,59,0.00,,,0.01,meteohub,2013-02-15 21:55:00,
2013-02-15 16:01:00,12.9,1.2,30.20,West,270,17.0,18.0,59,0.00,,,0.01,meteohub,2013-02-15 22:01:00,
2013-02-15 16:06:00,12.9,1.2,30.19,NW,315,18.0,18.0,59,0.00,,,0.01,meteohub,2013-02-15 22:06:00,
2013-02-15 16:11:00,12.9,1.2,30.19,NW,315,20.0,21.0,59,0.00,,,0.01,meteohub,2013-02-15 22:11:00,
2013-02-15 16:16:00,12.9,1.2,30.19,West,270,20.0,21.0,59,0.00,,,0.01,meteohub,2013-02-15 22:16:00,
2013-02-15 16:21:00,12.7,1.0,30.19,NW,315,19.0,21.0,59,0.00,,,0.01,meteohub,2013-02-15 22:21:00,
2013-02-15 16:26:00,12.9,1.2,30.19,NW,315,18.0,21.0,59,0.00,,,0.01,meteohub,2013-02-15 22:26:00,
2013-02-15 16:32:00,12.6,1.0,30.19,West,270,17.0,20.0,59,0.00,,,0.01,meteohub,2013-02-15 22:32:00,
2013-02-15 16:37:00,12.6,1.4,30.19,NW,315,17.0,20.0,60,0.00,,,0.01,meteohub,2013-02-15 22:37:00,
2013-02-15 16:42:00,12.6,1.4,30.20,West,270,17.0,20.0,60,0.00,,,0.01,meteohub,2013-02-15 22:42:00,
2013-02-15 16:47:00,12.2,1.0,30.19,NW,315,19.0,20.0,60,0.00,,,0.01,meteohub,2013-02-15 22:47:00,
2013-02-15 16:52:00,12.0,1.2,30.20,NW,315,21.0,21.0,61,0.00,,,0.01,meteohub,2013-02-15 22:52:00,
2013-02-15 16:57:00,11.8,1.4,30.19,NW,315,21.0,21.0,62,0.00,,,0.01,meteohub,2013-02-15 22:57:00,
2013-02-15 17:02:00,11.8,1.4,30.20,NW,315,18.0,21.0,62,0.00,,,0.01,meteohub,2013-02-15 23:02:00,
2013-02-15 17:08:00,11.5,1.0,30.20,NW,315,17.0,21.0,62,0.00,,,0.01,meteohub,2013-02-15 23:08:00,
2013-02-15 17:13:00,11.3,0.9,30.20,NW,315,15.0,21.0,62,0.00,,,0.01,meteohub,2013-02-15 23:13:00,
2013-02-15 17:18:00,10.8,0.3,30.19,West,270,15.0,21.0,62,0.00,,,0.01,meteohub,2013-02-15 23:18:00,
2013-02-15 17:23:00,10.4,-0.4,30.20,West,270,15.0,18.0,61,0.00,,,0.01,meteohub,2013-02-15 23:23:00,
2013-02-15 17:28:00,10.2,-1.7,30.20,West,270,14.0,18.0,58,0.00,,,0.01,meteohub,2013-02-15 23:28:00,
2013-02-15 17:33:00,10.2,-1.7,30.20,West,270,15.0,17.0,58,0.00,,,0.01,meteohub,2013-02-15 23:33:00,
2013-02-15 17:38:00,9.9,-2.0,30.20,West,270,12.0,16.0,58,0.00,,,0.01,meteohub,2013-02-15 23:38:00,
2013-02-15 17:43:00,9.5,-2.4,30.20,West,270,13.0,16.0,58,0.00,,,0.01,meteohub,2013-02-15 23:43:00,
2013-02-15 17:48:00,9.3,-2.4,30.19,West,270,14.0,16.0,58,0.00,,,0.01,meteohub,2013-02-15 23:48:00,
2013-02-15 17:53:00,9.1,-2.6,30.19,West,270,17.0,17.0,58,0.00,,,0.01,meteohub,2013-02-15 23:53:00,
2013-02-15 17:58:00,9.1,-2.6,30.20,West,270,15.0,17.0,58,0.00,,,0.01,meteohub,2013-02-15 23:58:00,
2013-02-15 18:03:00,9.0,-2.7,30.19,West,270,17.0,17.0,58,0.00,,,0.01,meteohub,2013-02-16 00:03:00,
2013-02-15 18:08:00,8.8,-2.9,30.19,West,270,15.0,18.0,58,0.00,,,0.00,meteohub,2013-02-16 00:08:00,
2013-02-15 18:13:00,8.4,-2.9,30.20,West,270,18.0,18.0,59,0.00,,,0.00,meteohub,2013-02-16 00:13:00,
2013-02-15 18:19:00,8.6,-3.1,30.19,West,270,16.0,18.0,58,0.00,,,0.00,meteohub,2013-02-16 00:19:00,
2013-02-15 18:24:00,8.8,-2.9,30.19,West,270,18.0,19.0,58,0.00,,,0.00,meteohub,2013-02-16 00:24:00,
2013-02-15 18:29:00,8.4,-2.9,30.19,West,270,15.0,19.0,59,0.00,,,0.00,meteohub,2013-02-16 00:29:00,
2013-02-15 18:34:00,8.4,-2.9,30.19,West,270,16.0,19.0,59,0.00,,,0.00,meteohub,2013-02-16 00:34:00,
2013-02-15 18:39:00,8.4,-2.9,30.19,West,270,15.0,18.0,59,0.00,,,0.00,meteohub,2013-02-16 00:39:00,
2013-02-15 18:44:00,8.4,-2.6,30.19,West,270,15.0,18.0,60,0.00,,,0.00,meteohub,2013-02-16 00:44:00,
2013-02-15 18:49:00,8.1,-2.9,30.19,West,270,15.0,19.0,60,0.00,,,0.00,meteohub,2013-02-16 00:49:00,
2013-02-15 18:54:00,8.1,-2.9,30.20,West,270,17.0,19.0,60,0.00,,,0.00,meteohub,2013-02-16 00:54:00,
2013-02-15 18:59:00,8.1,-2.9,30.19,West,270,15.0,19.0,60,0.00,,,0.00,meteohub,2013-02-16 00:59:00,
2013-02-15 19:05:00,7.7,-3.3,30.19,West,270,12.0,21.0,60,0.00,,,0.00,meteohub,2013-02-16 01:05:00,
2013-02-15 19:10:00,7.9,-3.1,30.19,West,270,15.0,21.0,60,0.00,,,0.00,meteohub,2013-02-16 01:10:00,
2013-02-15 19:15:00,7.5,-3.5,30.19,West,270,10.0,21.0,60,0.00,,,0.00,meteohub,2013-02-16 01:15:00,
2013-02-15 19:20:00,7.2,-3.8,30.18,West,270,11.0,15.0,60,0.00,,,0.00,meteohub,2013-02-16 01:20:00,
2013-02-15 19:25:00,7.0,-4.0,30.19,West,270,11.0,15.0,60,0.00,,,0.00,meteohub,2013-02-16 01:25:00,
2013-02-15 19:30:00,6.3,-4.4,30.19,West,270,8.0,11.0,61,0.00,,,0.00,meteohub,2013-02-16 01:30:00,
2013-02-15 19:36:00,7.0,-4.0,30.18,West,270,12.0,15.0,60,0.00,,,0.00,meteohub,2013-02-16 01:36:00,
2013-02-15 19:41:00,7.2,-3.5,30.18,NW,315,11.0,15.0,61,0.00,,,0.00,meteohub,2013-02-16 01:41:00,
2013-02-15 19:46:00,7.3,-3.3,30.18,West,270,10.0,15.0,61,0.00,,,0.00,meteohub,2013-02-16 01:46:00,
2013-02-15 19:51:00,7.0,-3.6,30.18,West,270,10.0,15.0,61,0.00,,,0.00,meteohub,2013-02-16 01:51:00,
2013-02-15 19:56:00,6.8,-3.8,30.18,West,270,9.0,14.0,61,0.00,,,0.00,meteohub,2013-02-16 01:56:00,
2013-02-15 20:01:00,6.4,-4.2,30.18,West,270,9.0,12.0,61,0.00,,,0.00,meteohub,2013-02-16 02:01:00,
2013-02-15 20:07:00,5.9,-4.7,30.18,West,270,11.0,12.0,61,0.00,,,0.00,meteohub,2013-02-16 02:07:00,
2013-02-15 20:12:00,5.7,-4.9,30.18,West,270,10.0,12.0,61,0.00,,,0.00,meteohub,2013-02-16 02:12:00,
2013-02-15 20:17:00,5.7,-4.9,30.19,West,270,9.0,11.0,61,0.00,,,0.00,meteohub,2013-02-16 02:17:00,
2013-02-15 20:22:00,5.7,-4.9,30.18,West,270,8.0,11.0,61,0.00,,,0.00,meteohub,2013-02-16 02:22:00,
2013-02-15 20:27:00,5.4,-5.1,30.18,West,270,12.0,12.0,61,0.00,,,0.00,meteohub,2013-02-16 02:27:00,
2013-02-15 20:33:00,5.4,-5.1,30.19,West,270,11.0,12.0,61,0.00,,,0.00,meteohub,2013-02-16 02:33:00,
2013-02-15 20:38:00,5.4,-5.1,30.18,West,270,11.0,12.0,61,0.00,,,0.00,meteohub,2013-02-16 02:38:00,
2013-02-15 20:43:00,5.4,-5.1,30.18,West,270,11.0,14.0,61,0.00,,,0.00,meteohub,2013-02-16 02:43:00,
2013-02-15 20:48:00,6.8,-3.8,30.18,West,270,12.0,14.0,61,0.00,,,0.00,meteohub,2013-02-16 02:48:00,
2013-02-15 20:53:00,7.5,-2.7,30.18,West,270,15.0,17.0,62,0.00,,,0.00,meteohub,2013-02-16 02:53:00,
2013-02-15 20:58:00,8.2,-1.8,30.18,NW,315,15.0,17.0,63,0.00,,,0.00,meteohub,2013-02-16 02:58:00,
2013-02-15 21:03:00,8.4,-1.7,30.18,West,270,16.0,18.0,63,0.00,,,0.00,meteohub,2013-02-16 03:03:00,
2013-02-15 21:09:00,8.8,-1.7,30.18,West,270,17.0,18.0,62,0.00,,,0.00,meteohub,2013-02-16 03:09:00,
2013-02-15 21:14:00,9.0,-1.5,30.18,West,270,17.0,19.0,62,0.00,,,0.00,meteohub,2013-02-16 03:14:00,
2013-02-15 21:19:00,9.1,-1.3,30.18,West,270,15.0,19.0,62,0.00,,,0.00,meteohub,2013-02-16 03:19:00,
2013-02-15 21:24:00,9.3,-1.1,30.17,West,270,15.0,19.0,62,0.00,,,0.00,meteohub,2013-02-16 03:24:00,
2013-02-15 21:29:00,9.3,-1.1,30.17,West,270,10.0,17.0,62,0.00,,,0.00,meteohub,2013-02-16 03:29:00,
2013-02-15 21:34:00,9.3,-1.1,30.17,NW,315,13.0,16.0,62,0.00,,,0.00,meteohub,2013-02-16 03:34:00,
2013-02-15 21:40:00,9.5,-0.9,30.17,West,270,14.0,16.0,62,0.00,,,0.00,meteohub,2013-02-16 03:40:00,
2013-02-15 21:45:00,9.5,-0.9,30.17,West,270,11.0,14.0,62,0.00,,,0.00,meteohub,2013-02-16 03:45:00,
2013-02-15 21:50:00,9.7,-0.8,30.17,West,270,9.0,14.0,62,0.00,,,0.00,meteohub,2013-02-16 03:50:00,
2013-02-15 21:55:00,9.7,-0.8,30.16,NW,315,8.0,14.0,62,0.00,,,0.00,meteohub,2013-02-16 03:55:00,
2013-02-15 22:01:00,10.0,-0.4,30.16,West,270,11.0,13.0,62,0.00,,,0.00,meteohub,2013-02-16 04:01:00,
2013-02-15 22:06:00,10.0,0.0,30.16,West,270,11.0,11.0,63,0.00,,,0.00,meteohub,2013-02-16 04:06:00,
2013-02-15 22:11:00,10.0,-0.4,30.17,West,270,10.0,11.0,62,0.00,,,0.00,meteohub,2013-02-16 04:11:00,
2013-02-15 22:16:00,10.0,0.0,30.17,West,270,9.0,12.0,63,0.00,,,0.00,meteohub,2013-02-16 04:16:00,
2013-02-15 22:22:00,10.2,0.1,30.17,NW,315,11.0,12.0,63,0.00,,,0.00,meteohub,2013-02-16 04:22:00,
2013-02-15 22:27:00,10.4,1.6,30.16,West,270,8.0,12.0,67,0.00,,,0.00,meteohub,2013-02-16 04:27:00,
2013-02-15 22:32:00,10.4,1.6,30.16,West,270,8.0,13.0,67,0.00,,,0.00,meteohub,2013-02-16 04:32:00,
2013-02-15 22:37:00,10.4,1.6,30.15,West,270,8.0,13.0,67,0.00,,,0.00,meteohub,2013-02-16 04:37:00,
2013-02-15 22:42:00,10.4,1.6,30.15,West,270,9.0,10.0,67,0.00,,,0.00,meteohub,2013-02-16 04:42:00,
2013-02-15 22:47:00,10.4,1.6,30.15,West,270,8.0,9.0,67,0.00,,,0.00,meteohub,2013-02-16 04:47:00,
2013-02-15 22:52:00,10.4,1.6,30.14,West,270,6.0,9.0,67,0.00,,,0.00,meteohub,2013-02-16 04:52:00,
2013-02-15 22:57:00,10.4,1.6,30.15,West,270,6.0,9.0,67,0.00,,,0.00,meteohub,2013-02-16 04:57:00,
2013-02-15 23:00:00,10.6,1.8,30.15,West,270,8.0,9.0,67,0.00,,,0.00,meteohub,2013-02-16 05:00:00,
2013-02-15 23:01:00,10.6,1.8,30.15,West,270,8.0,8.0,67,0.00,,,0.00,meteohub,2013-02-16 05:01:00,
2013-02-15 23:02:00,10.6,1.8,30.14,West,270,5.0,8.0,67,0.00,,,0.00,meteohub,2013-02-16 05:02:00,
2013-02-15 23:07:00,10.8,1.9,30.14,West,270,4.0,8.0,67,0.00,,,0.00,meteohub,2013-02-16 05:07:00,
2013-02-15 23:12:00,10.6,1.8,30.14,West,270,5.0,8.0,67,0.00,,,0.00,meteohub,2013-02-16 05:12:00,
2013-02-15 23:17:00,10.6,1.8,30.14,West,270,5.0,8.0,67,0.00,,,0.00,meteohub,2013-02-16 05:17:00,
2013-02-15 23:22:00,10.4,1.2,30.14,SW,225,5.0,6.0,66,0.00,,,0.00,meteohub,2013-02-16 05:22:00,
2013-02-15 23:23:00,10.4,1.2,30.14,SW,225,5.0,6.0,66,0.00,,,0.00,meteohub,2013-02-16 05:23:00,
2013-02-15 23:28:00,10.4,1.2,30.14,SW,225,5.0,6.0,66,0.00,,,0.00,meteohub,2013-02-16 05:28:00,
2013-02-15 23:33:00,10.4,1.2,30.14,SW,225,5.0,6.0,66,0.00,,,0.00,meteohub,2013-02-16 05:33:00,
2013-02-15 23:38:00,10.2,-0.2,30.13,SW,225,5.0,6.0,62,0.00,,,0.00,meteohub,2013-02-16 05:38:00,
2013-02-15 23:43:00,10.4,1.2,30.13,SW,225,5.0,6.0,66,0.00,,,0.00,meteohub,2013-02-16 05:43:00,
2013-02-15 23:48:00,10.4,1.6,30.13,SW,225,6.0,6.0,67,0.00,,,0.00,meteohub,2013-02-16 05:48:00,
2013-02-15 23:53:00,10.4,1.6,30.13,SW,225,4.0,6.0,67,0.00,,,0.00,meteohub,2013-02-16 05:53:00,
2013-02-15 23:58:00,10.4,1.6,30.13,SW,225,4.0,6.0,67,0.00,,,0.00,meteohub,2013-02-16 05:58:00,